Time;durP1;ratioP1;P1;durP2;ratioP2;P2;SDS_P1;SDS_P2;PMS_P1;PMS_P2;Temp;Humidity;BMP_temperature;BMP_pressure;BME280_temperature;BME280_humidity;BME280_pressure;Samples;Min_cycle;Max_cycle;Signal;HPM_P1;HPM_P2
2023/04/27 00:02:18;;;;;;;9.50;5.72;;;1.90;99.90;;;;;;5035953;28;20040;-95
2023/04/27 00:04:44;;;;;;;9.32;6.15;;;1.80;99.90;;;;;;5042029;28;20091;-95
2023/04/27 00:07:09;;;;;;;11.57;6.47;;;1.90;99.90;;;;;;5055731;28;20047;-94
2023/04/27 00:09:35;;;;;;;11.02;5.88;;;1.90;99.90;;;;;;5059203;28;20051;-94
2023/04/27 00:12:05;;;;;;;9.95;6.97;;;1.90;99.90;;;;;;5070526;28;20040;-94
2023/04/27 00:14:31;;;;;;;9.43;6.47;;;2.00;99.90;;;;;;5072174;28;20044;-95
2023/04/27 00:16:57;;;;;;;11.23;6.32;;;2.00;99.90;;;;;;5053920;28;20067;-94
2023/04/27 00:19:23;;;;;;;10.27;6.15;;;2.00;99.90;;;;;;5071955;28;20048;-95
2023/04/27 00:21:51;;;;;;;8.93;5.43;;;2.10;99.90;;;;;;5052591;28;20067;-95
2023/04/27 00:24:29;;;;;;;9.23;6.20;;;2.10;99.90;;;;;;5058309;28;20337;-95
2023/04/27 00:26:58;;;;;;;12.45;6.18;;;2.10;99.90;;;;;;5072098;28;20048;-95
2023/04/27 00:29:34;;;;;;;12.57;6.07;;;2.10;99.90;;;;;;5047291;28;20037;-95
2023/04/27 00:32:03;;;;;;;8.48;5.60;;;2.20;99.90;;;;;;5058305;28;20033;-95
2023/04/27 00:34:29;;;;;;;9.55;5.65;;;2.20;99.90;;;;;;5055535;28;20104;-96
2023/04/27 00:37:01;;;;;;;9.50;5.88;;;2.20;99.90;;;;;;5055669;28;20036;-95
2023/04/27 00:39:33;;;;;;;10.13;5.30;;;2.20;99.90;;;;;;5061279;28;20045;-95
2023/04/27 00:42:00;;;;;;;9.63;5.63;;;2.10;99.90;;;;;;5046012;28;20104;-95
2023/04/27 00:44:26;;;;;;;9.75;6.00;;;2.00;99.90;;;;;;5054554;28;20613;-93
2023/04/27 00:46:52;;;;;;;10.23;5.65;;;2.10;99.90;;;;;;5020661;28;20029;-94
2023/04/27 00:49:22;;;;;;;11.45;5.90;;;2.40;99.90;;;;;;5048264;28;20041;-94
2023/04/27 00:51:48;;;;;;;11.57;6.30;;;2.50;99.90;;;;;;5055248;28;20037;-94
2023/04/27 00:54:19;;;;;;;10.93;5.72;;;2.60;99.90;;;;;;5039557;28;20123;-95
2023/04/27 00:56:49;;;;;;;12.20;6.28;;;2.70;99.90;;;;;;5039984;28;20033;-95
2023/04/27 00:59:15;;;;;;;10.93;6.45;;;2.70;99.90;;;;;;5047463;28;20037;-95
2023/04/27 01:01:48;;;;;;;11.23;6.22;;;2.70;99.90;;;;;;5040508;28;20072;-95
2023/04/27 01:04:15;;;;;;;10.20;6.35;;;2.70;99.90;;;;;;5044968;28;20036;-96
2023/04/27 01:06:41;;;;;;;11.05;6.13;;;2.70;99.90;;;;;;5047291;28;20052;-94
2023/04/27 01:09:08;;;;;;;9.50;5.82;;;2.70;99.90;;;;;;5032854;28;20044;-95
2023/04/27 01:11:34;;;;;;;8.50;5.78;;;2.70;99.90;;;;;;5038052;28;20121;-95
2023/04/27 01:14:04;;;;;;;9.93;5.85;;;2.60;99.90;;;;;;5030673;28;20175;-95
2023/04/27 01:16:34;;;;;;;13.48;5.85;;;2.60;99.90;;;;;;5031117;28;20103;-94
2023/04/27 01:19:00;;;;;;;8.98;6.03;;;2.50;99.90;;;;;;5066626;28;20060;-94
2023/04/27 01:21:26;;;;;;;11.98;6.00;;;2.50;99.90;;;;;;5047531;28;20102;-95
2023/04/27 01:23:53;;;;;;;9.95;6.18;;;2.40;99.90;;;;;;5048071;28;20040;-95
2023/04/27 01:26:19;;;;;;;7.45;5.60;;;2.30;99.90;;;;;;5043722;28;20044;-95
2023/04/27 01:28:44;;;;;;;12.32;6.80;;;2.20;99.90;;;;;;5032312;28;20045;-94
2023/04/27 01:31:11;;;;;;;10.13;6.03;;;2.20;99.90;;;;;;5029345;28;20045;-94
2023/04/27 01:33:37;;;;;;;11.70;6.63;;;2.20;99.90;;;;;;5032639;28;20103;-95
2023/04/27 01:36:03;;;;;;;10.38;5.78;;;2.10;99.90;;;;;;5027641;28;20029;-95
2023/04/27 01:38:32;;;;;;;10.45;5.80;;;2.00;99.90;;;;;;5028990;28;20041;-94
2023/04/27 01:41:00;;;;;;;10.18;6.22;;;2.00;99.90;;;;;;5026483;28;20119;-93
2023/04/27 01:43:30;;;;;;;9.80;6.40;;;1.90;99.90;;;;;;5022594;28;20036;-93
2023/04/27 01:46:23;;;;;;;11.90;6.55;;;1.80;99.90;;;;;;5023287;28;20039;-93
2023/04/27 01:48:48;;;;;;;10.75;6.22;;;1.70;99.90;;;;;;5038303;28;20501;-92
2023/04/27 01:51:14;;;;;;;10.32;6.00;;;1.60;99.90;;;;;;5054800;28;20126;-95
2023/04/27 01:53:40;;;;;;;10.25;6.75;;;1.60;99.90;;;;;;5038732;28;20071;-93
2023/04/27 01:56:09;;;;;;;10.57;6.82;;;1.60;99.90;;;;;;5021394;28;20041;-92
2023/04/27 01:58:35;;;;;;;8.82;6.38;;;1.60;99.90;;;;;;5038497;28;20049;-93
2023/04/27 02:01:00;;;;;;;11.18;6.72;;;1.60;99.90;;;;;;5019060;28;20032;-91
2023/04/27 02:03:26;;;;;;;10.52;6.57;;;1.50;99.90;;;;;;5039046;28;20063;-92
2023/04/27 02:05:52;;;;;;;10.50;6.95;;;1.50;99.90;;;;;;5025421;28;20099;-92
2023/04/27 02:08:17;;;;;;;12.02;7.70;;;1.40;99.90;;;;;;5019899;28;20049;-91
2023/04/27 02:10:43;;;;;;;12.75;6.70;;;1.40;99.90;;;;;;5038803;28;20123;-92
2023/04/27 02:13:09;;;;;;;10.52;6.75;;;1.30;99.90;;;;;;5022530;28;20106;-91
2023/04/27 02:15:35;;;;;;;14.50;7.22;;;1.30;99.90;;;;;;5019977;28;20052;-91
2023/04/27 02:18:02;;;;;;;11.88;7.47;;;1.30;99.90;;;;;;5020876;28;20037;-91
2023/04/27 02:20:32;;;;;;;10.18;7.03;;;1.30;99.90;;;;;;5021122;28;20052;-91
2023/04/27 02:22:57;;;;;;;13.00;7.70;;;1.30;99.90;;;;;;5027933;28;20499;-90
2023/04/27 02:25:23;;;;;;;13.65;7.38;;;1.20;99.90;;;;;;5033704;28;20096;-90
2023/04/27 02:27:49;;;;;;;9.40;7.25;;;1.20;99.90;;;;;;5038400;28;20491;-93
2023/04/27 02:30:15;;;;;;;13.27;7.47;;;1.20;99.90;;;;;;5022357;28;20116;-92
2023/04/27 02:32:41;;;;;;;12.02;7.45;;;1.20;99.90;;;;;;5019501;28;20524;-91
2023/04/27 02:35:07;;;;;;;13.73;7.43;;;1.20;99.90;;;;;;5018907;28;20041;-90
2023/04/27 02:37:33;;;;;;;13.05;8.05;;;1.20;99.90;;;;;;5036270;28;20405;-91
2023/04/27 02:39:59;;;;;;;12.32;8.07;;;1.20;99.90;;;;;;5021576;28;20275;-93
2023/04/27 02:42:25;;;;;;;10.80;7.55;;;1.20;99.90;;;;;;5034415;28;20033;-92
2023/04/27 02:44:51;;;;;;;13.02;7.18;;;1.10;99.90;;;;;;5022152;28;20571;-90
2023/04/27 02:47:17;;;;;;;13.68;7.68;;;1.10;99.90;;;;;;5035875;28;20041;-91
2023/04/27 02:49:42;;;;;;;11.95;7.03;;;1.10;99.90;;;;;;5020017;28;20126;-91
2023/04/27 02:52:08;;;;;;;12.93;7.60;;;1.10;99.90;;;;;;5039219;28;20285;-90
2023/04/27 02:54:35;;;;;;;14.23;7.90;;;1.10;99.90;;;;;;5017918;28;20049;-92
2023/04/27 02:57:01;;;;;;;15.32;7.40;;;1.10;99.90;;;;;;5038498;28;20539;-91
2023/04/27 02:59:27;;;;;;;11.25;7.10;;;1.00;99.90;;;;;;5021042;28;20064;-92
2023/04/27 03:01:52;;;;;;;10.65;6.88;;;1.00;99.90;;;;;;5039176;28;20025;-92
2023/04/27 03:04:18;;;;;;;14.93;8.20;;;1.00;99.90;;;;;;5034758;28;20504;-91
2023/04/27 03:06:44;;;;;;;11.80;8.20;;;1.00;99.90;;;;;;5019259;28;20057;-90
2023/04/27 03:09:13;;;;;;;15.02;8.90;;;1.00;99.90;;;;;;5024081;28;20528;-90
2023/04/27 03:11:38;;;;;;;13.10;8.68;;;0.90;99.90;;;;;;5025384;28;20393;-92
2023/04/27 03:14:05;;;;;;;11.57;8.63;;;0.90;99.90;;;;;;5017128;28;20056;-91
2023/04/27 03:16:33;;;;;;;14.35;9.18;;;0.90;99.90;;;;;;5035861;28;20041;-91
2023/04/27 03:18:59;;;;;;;17.40;9.68;;;0.90;99.90;;;;;;5016285;28;20044;-92
2023/04/27 03:21:26;;;;;;;16.38;9.77;;;0.90;99.90;;;;;;5021832;28;20492;-91
2023/04/27 03:23:55;;;;;;;16.92;9.77;;;0.90;99.90;;;;;;5036015;28;20117;-92
2023/04/27 03:26:20;;;;;;;16.77;8.77;;;0.90;99.90;;;;;;5018607;28;20124;-91
2023/04/27 03:28:46;;;;;;;12.68;8.57;;;0.90;99.90;;;;;;5017844;28;20139;-91
2023/04/27 03:31:13;;;;;;;16.88;8.90;;;0.90;99.90;;;;;;5019346;28;20102;-91
2023/04/27 03:33:40;;;;;;;15.13;9.45;;;0.80;99.90;;;;;;5035789;28;20409;-92
2023/04/27 03:36:06;;;;;;;16.20;9.32;;;0.90;99.90;;;;;;5024780;28;20079;-92
2023/04/27 03:38:33;;;;;;;15.02;9.52;;;0.90;99.90;;;;;;5039188;28;20032;-91
2023/04/27 03:40:58;;;;;;;16.40;9.57;;;0.90;99.90;;;;;;5017971;28;20595;-92
2023/04/27 03:43:25;;;;;;;14.13;9.55;;;0.90;99.90;;;;;;5035298;28;20148;-91
2023/04/27 03:45:51;;;;;;;15.55;9.48;;;0.80;99.90;;;;;;5019824;28;20480;-91
2023/04/27 03:48:17;;;;;;;12.52;7.93;;;0.80;99.90;;;;;;5036973;28;20048;-92
2023/04/27 03:50:43;;;;;;;13.40;7.68;;;0.70;99.90;;;;;;5020046;28;20106;-91
2023/04/27 03:53:12;;;;;;;12.27;7.40;;;0.70;99.90;;;;;;5026750;28;20501;-92
2023/04/27 03:55:39;;;;;;;17.67;7.90;;;0.70;99.90;;;;;;5019716;28;20307;-91
2023/04/27 03:58:05;;;;;;;13.88;7.78;;;0.70;99.90;;;;;;5036866;28;20053;-92
2023/04/27 04:00:32;;;;;;;13.02;7.53;;;0.70;99.90;;;;;;5024167;28;20033;-91
2023/04/27 04:02:58;;;;;;;15.63;7.55;;;0.60;99.90;;;;;;5045335;28;20033;-91
2023/04/27 04:05:24;;;;;;;15.27;7.70;;;0.60;99.90;;;;;;5030357;28;20087;-91
2023/04/27 04:07:50;;;;;;;17.80;8.57;;;0.70;99.90;;;;;;5030654;28;20102;-90
2023/04/27 04:10:16;;;;;;;12.95;7.65;;;0.60;99.90;;;;;;5039957;28;20040;-91
2023/04/27 04:12:41;;;;;;;11.20;7.80;;;0.60;99.90;;;;;;5021508;28;20076;-91
2023/04/27 04:15:08;;;;;;;15.40;8.20;;;0.50;99.90;;;;;;5026204;28;20052;-90
2023/04/27 04:17:34;;;;;;;13.07;7.93;;;0.60;99.90;;;;;;5028821;28;20055;-92
2023/04/27 04:20:00;;;;;;;16.55;8.07;;;0.50;99.90;;;;;;5041367;28;20033;-90
2023/04/27 04:22:26;;;;;;;12.25;7.85;;;0.60;99.90;;;;;;5043831;28;20040;-90
2023/04/27 04:24:52;;;;;;;16.67;7.57;;;0.60;99.90;;;;;;5040940;28;20468;-90
2023/04/27 04:27:20;;;;;;;11.85;7.55;;;0.50;99.90;;;;;;5043380;28;20111;-91
2023/04/27 04:29:45;;;;;;;16.35;7.53;;;0.60;99.90;;;;;;5045829;28;20045;-90
2023/04/27 04:32:11;;;;;;;16.27;8.20;;;0.50;99.90;;;;;;5041733;28;20095;-90
2023/04/27 04:34:37;;;;;;;13.13;7.25;;;0.60;99.90;;;;;;5023349;28;20052;-92
2023/04/27 04:37:04;;;;;;;13.52;8.05;;;0.70;99.90;;;;;;5040496;28;20025;-92
2023/04/27 04:39:33;;;;;;;15.57;8.05;;;0.70;99.90;;;;;;5022348;28;20045;-91
2023/04/27 04:41:58;;;;;;;18.88;8.07;;;0.80;99.90;;;;;;5031363;28;20060;-90
2023/04/27 04:44:24;;;;;;;15.35;8.82;;;0.90;99.90;;;;;;5023392;28;20138;-91
2023/04/27 04:46:50;;;;;;;16.45;9.18;;;1.00;99.90;;;;;;5026610;28;20237;-91
2023/04/27 04:49:16;;;;;;;13.38;7.45;;;1.10;99.90;;;;;;5025455;28;20045;-90
2023/04/27 04:51:43;;;;;;;13.20;8.00;;;1.10;99.90;;;;;;5040897;28;20480;-91
2023/04/27 04:54:09;;;;;;;16.20;7.97;;;1.10;99.90;;;;;;5028773;28;20076;-91
2023/04/27 04:56:35;;;;;;;12.38;7.03;;;1.10;99.90;;;;;;5042864;28;20142;-90
2023/04/27 04:59:01;;;;;;;15.30;8.18;;;1.20;99.90;;;;;;5038102;28;20573;-91
2023/04/27 05:01:26;;;;;;;14.35;8.02;;;1.30;99.90;;;;;;5028043;28;20036;-90
2023/04/27 05:03:52;;;;;;;15.68;8.63;;;1.30;99.90;;;;;;5042158;28;20079;-92
2023/04/27 05:06:18;;;;;;;13.35;8.38;;;1.30;99.90;;;;;;5021616;28;20588;-92
2023/04/27 05:08:43;;;;;;;13.40;8.20;;;1.40;99.90;;;;;;5027147;28;20032;-91
2023/04/27 05:11:10;;;;;;;13.15;8.20;;;1.40;99.90;;;;;;5035793;28;20030;-91
2023/04/27 05:13:37;;;;;;;13.55;8.30;;;1.50;99.90;;;;;;5035490;28;20057;-90
2023/04/27 05:16:05;;;;;;;11.82;7.80;;;1.70;99.90;;;;;;5019934;28;20444;-90
2023/04/27 05:18:36;;;;;;;13.35;8.27;;;1.90;99.90;;;;;;5022920;28;20042;-92
2023/04/27 05:21:02;;;;;;;15.15;8.85;;;2.10;99.90;;;;;;5020416;28;20604;-92
2023/04/27 05:23:28;;;;;;;18.42;8.77;;;2.30;99.90;;;;;;5038212;28;20094;-92
2023/04/27 05:25:53;;;;;;;12.18;7.78;;;2.40;99.90;;;;;;5025032;28;20040;-93
2023/04/27 05:28:19;;;;;;;15.65;8.13;;;2.70;99.90;;;;;;5025628;28;20098;-94
2023/04/27 05:30:45;;;;;;;14.00;8.80;;;2.80;99.90;;;;;;5034536;28;20276;-95
2023/04/27 05:33:11;;;;;;;13.15;7.90;;;3.00;99.90;;;;;;5026159;28;20496;-94
2023/04/27 05:35:37;;;;;;;13.23;7.90;;;3.20;99.90;;;;;;5030888;28;20160;-95
2023/04/27 05:38:02;;;;;;;15.05;7.93;;;3.40;99.90;;;;;;5027860;28;20028;-94
2023/04/27 05:40:28;;;;;;;15.23;7.43;;;3.60;99.90;;;;;;5042815;28;20033;-93
2023/04/27 05:42:54;;;;;;;15.45;8.20;;;3.70;99.90;;;;;;5039251;28;20444;-94
2023/04/27 05:45:20;;;;;;;13.93;7.45;;;3.80;99.90;;;;;;5024212;28;20041;-91
2023/04/27 05:47:46;;;;;;;13.35;7.18;;;4.00;99.90;;;;;;5036468;28;20416;-91
2023/04/27 05:50:12;;;;;;;14.25;7.70;;;4.00;99.90;;;;;;5022972;28;20492;-91
2023/04/27 05:52:40;;;;;;;14.82;7.25;;;4.10;99.90;;;;;;5019769;28;20119;-91
2023/04/27 05:55:07;;;;;;;13.23;7.20;;;4.30;99.90;;;;;;5016794;28;20373;-91
2023/04/27 05:57:32;;;;;;;13.90;6.95;;;4.30;99.90;;;;;;5026598;28;20033;-90
2023/04/27 05:59:59;;;;;;;10.40;6.40;;;4.40;99.90;;;;;;5035300;28;20264;-89
2023/04/27 06:02:26;;;;;;;9.57;6.80;;;4.40;99.90;;;;;;5023948;28;20037;-90
2023/04/27 06:04:52;;;;;;;11.77;6.30;;;4.50;99.90;;;;;;5017592;28;20037;-89
2023/04/27 06:07:20;;;;;;;10.90;6.45;;;4.60;99.90;;;;;;5034649;28;20067;-88
2023/04/27 06:09:46;;;;;;;10.52;6.18;;;4.70;99.90;;;;;;5035027;28;20037;-88
2023/04/27 06:12:11;;;;;;;10.02;5.38;;;4.80;99.90;;;;;;5024802;28;20102;-89
2023/04/27 06:14:38;;;;;;;7.60;5.07;;;4.90;99.90;;;;;;5033111;28;20111;-89
2023/04/27 06:17:03;;;;;;;9.18;5.03;;;5.00;99.90;;;;;;5033056;28;20033;-88
2023/04/27 06:19:30;;;;;;;8.30;4.68;;;5.10;99.90;;;;;;5032313;28;20132;-87
2023/04/27 06:21:55;;;;;;;9.55;4.70;;;5.20;99.90;;;;;;5019757;28;20044;-88
2023/04/27 06:24:21;;;;;;;7.82;4.32;;;5.30;99.90;;;;;;5033033;28;20033;-88
2023/04/27 06:26:48;;;;;;;9.25;4.47;;;5.40;99.90;;;;;;5031684;28;20090;-87
2023/04/27 06:29:14;;;;;;;8.07;4.38;;;5.50;99.90;;;;;;5016188;28;20194;-87
2023/04/27 06:31:40;;;;;;;8.57;4.30;;;5.60;99.90;;;;;;5016790;28;20090;-87
2023/04/27 06:34:06;;;;;;;7.57;4.10;;;5.70;99.90;;;;;;5014455;28;20037;-87
2023/04/27 06:36:31;;;;;;;7.47;4.00;;;5.90;99.90;;;;;;5016886;28;20102;-87
2023/04/27 06:38:58;;;;;;;10.50;4.40;;;6.00;99.90;;;;;;5021004;28;20477;-87
2023/04/27 06:41:25;;;;;;;7.22;4.30;;;6.10;99.90;;;;;;5034390;28;20068;-87
2023/04/27 06:43:51;;;;;;;7.88;3.85;;;6.20;99.90;;;;;;5032901;28;20500;-87
2023/04/27 06:46:17;;;;;;;7.07;3.83;;;6.30;99.90;;;;;;5032557;28;20433;-87
2023/04/27 06:48:43;;;;;;;7.78;3.88;;;6.40;99.90;;;;;;5031568;28;20037;-87
2023/04/27 06:51:09;;;;;;;8.80;3.90;;;6.50;99.90;;;;;;5032291;28;20107;-87
2023/04/27 06:53:35;;;;;;;6.03;4.22;;;6.50;99.90;;;;;;5032278;28;20117;-87
2023/04/27 06:56:01;;;;;;;9.82;3.80;;;6.60;99.90;;;;;;5016347;28;20319;-85
2023/04/27 06:58:27;;;;;;;7.45;4.57;;;6.70;99.90;;;;;;5020393;28;20041;-86
2023/04/27 07:00:52;;;;;;;5.78;4.30;;;6.80;99.90;;;;;;5027983;28;20037;-86
2023/04/27 07:03:25;;;;;;;7.50;4.22;;;7.00;99.90;;;;;;5019928;28;20040;-85
2023/04/27 07:05:51;;;;;;;7.93;4.13;;;7.00;99.90;;;;;;5010254;28;20044;-87
2023/04/27 07:08:16;;;;;;;8.10;4.38;;;7.10;99.90;;;;;;5029673;28;20045;-87
2023/04/27 07:10:42;;;;;;;8.50;4.95;;;7.20;99.90;;;;;;5016266;28;20179;-87
2023/04/27 07:13:09;;;;;;;7.28;4.43;;;7.40;99.90;;;;;;5032112;28;20059;-86
2023/04/27 07:15:35;;;;;;;9.32;4.85;;;7.50;99.90;;;;;;5032826;28;20598;-86
2023/04/27 07:18:00;;;;;;;6.75;4.15;;;7.60;99.90;;;;;;5015413;28;20048;-87
2023/04/27 07:20:26;;;;;;;11.40;4.80;;;7.50;99.90;;;;;;5032450;28;20040;-87
2023/04/27 07:22:52;;;;;;;8.27;4.40;;;7.60;99.90;;;;;;5036263;28;20156;-87
2023/04/27 07:25:18;;;;;;;7.28;4.07;;;7.70;99.90;;;;;;5013775;28;20469;-86
2023/04/27 07:27:44;;;;;;;6.95;3.95;;;7.70;99.90;;;;;;5020526;28;20049;-87
2023/04/27 07:30:12;;;;;;;4.25;3.65;;;7.90;99.90;;;;;;5019677;28;20514;-87
2023/04/27 07:32:42;;;;;;;6.35;3.88;;;7.90;99.90;;;;;;5016140;28;20042;-87
2023/04/27 07:35:08;;;;;;;5.65;3.83;;;8.00;99.90;;;;;;5049184;28;20040;-87
2023/04/27 07:37:37;;;;;;;7.50;3.85;;;8.10;99.90;;;;;;5031617;28;20503;-87
2023/04/27 07:40:15;;;;;;;6.35;3.63;;;8.30;99.90;;;;;;5034518;28;20041;-87
2023/04/27 07:42:41;;;;;;;7.07;4.20;;;8.40;63.00;;;;;;5047675;28;20072;-87
2023/04/27 07:45:13;;;;;;;6.72;3.97;;;8.50;72.00;;;;;;5015621;28;20033;-87
2023/04/27 07:47:38;;;;;;;5.93;3.70;;;8.60;99.90;;;;;;5017025;28;20608;-86
2023/04/27 07:50:06;;;;;;;6.55;3.67;;;8.70;99.90;;;;;;5032475;28;20064;-87
2023/04/27 07:52:32;;;;;;;5.53;3.60;;;8.80;99.90;;;;;;5011310;28;20055;-87
2023/04/27 07:54:57;;;;;;;7.47;3.55;;;8.80;98.80;;;;;;5031684;28;20040;-87
2023/04/27 07:57:23;;;;;;;8.60;3.50;;;8.90;99.90;;;;;;5010206;28;20103;-86
2023/04/27 07:59:49;;;;;;;7.78;4.07;;;8.90;99.90;;;;;;5014329;28;20029;-87
2023/04/27 08:02:15;;;;;;;5.00;2.95;;;8.90;99.90;;;;;;5032714;28;20067;-87
2023/04/27 08:04:40;;;;;;;4.43;2.65;;;9.00;99.90;;;;;;5032436;28;20041;-87
2023/04/27 08:07:06;;;;;;;5.05;2.80;;;9.00;1.00;;;;;;5030118;28;20712;-87
2023/04/27 08:09:32;;;;;;;4.97;2.40;;;9.10;17.30;;;;;;5032604;28;20041;-88
2023/04/27 08:11:57;;;;;;;5.80;2.72;;;9.20;87.40;;;;;;5012799;28;20034;-87
2023/04/27 08:14:23;;;;;;;4.43;2.70;;;9.20;1.00;;;;;;5009794;28;20136;-87
2023/04/27 08:16:50;;;;;;;4.05;2.63;;;9.50;97.00;;;;;;5031442;28;20052;-87
2023/04/27 08:19:17;;;;;;;7.32;2.92;;;9.40;99.90;;;;;;5015981;28;20104;-85
2023/04/27 08:21:42;;;;;;;4.13;2.40;;;9.60;99.90;;;;;;5032355;28;20069;-83
2023/04/27 08:24:08;;;;;;;4.13;2.20;;;9.50;99.90;;;;;;5030690;28;20349;-84
2023/04/27 08:26:34;;;;;;;4.80;2.35;;;9.50;1.00;;;;;;5031479;28;20210;-84
2023/04/27 08:29:00;;;;;;;3.45;2.38;;;9.50;1.00;;;;;;5030848;28;20041;-84
2023/04/27 08:31:26;;;;;;;4.18;3.10;;;9.70;92.40;;;;;;5017421;28;20131;-84
2023/04/27 08:33:52;;;;;;;3.25;2.47;;;9.80;99.90;;;;;;5045284;28;20124;-84
2023/04/27 08:36:25;;;;;;;3.88;2.75;;;9.80;99.90;;;;;;5016508;28;20033;-84
2023/04/27 08:38:51;;;;;;;3.53;2.47;;;10.00;99.90;;;;;;5031161;28;20048;-84
2023/04/27 08:41:21;;;;;;;3.92;2.70;;;10.00;5.30;;;;;;5030991;28;20634;-84
2023/04/27 08:43:53;;;;;;;6.03;2.80;;;10.10;1.00;;;;;;5030349;28;20087;-84
2023/04/27 08:46:27;;;;;;;3.88;2.55;;;10.40;99.90;;;;;;5034085;28;20049;-84
2023/04/27 08:48:53;;;;;;;4.07;2.77;;;10.30;99.90;;;;;;5034853;28;20386;-84
2023/04/27 08:51:20;;;;;;;4.82;2.50;;;10.50;99.90;;;;;;5036023;28;20116;-84
2023/04/27 08:53:55;;;;;;;3.75;2.70;;;10.60;99.90;;;;;;5034909;28;20149;-84
2023/04/27 08:56:24;;;;;;;5.20;2.95;;;10.70;99.90;;;;;;5016790;28;20037;-84
2023/04/27 08:58:51;;;;;;;8.60;3.10;;;10.80;99.90;;;;;;5033217;28;20080;-84
2023/04/27 09:01:17;;;;;;;7.05;3.00;;;10.90;99.90;;;;;;5033687;28;20037;-84
2023/04/27 09:03:45;;;;;;;6.53;2.90;;;11.10;99.90;;;;;;5036067;28;20479;-83
2023/04/27 09:06:12;;;;;;;4.50;2.80;;;11.00;99.90;;;;;;5034141;28;20055;-84
2023/04/27 09:08:45;;;;;;;3.78;2.50;;;11.10;51.10;;;;;;5036151;28;20087;-84
2023/04/27 09:11:12;;;;;;;4.78;2.67;;;11.10;99.90;;;;;;5025929;28;20136;-84
2023/04/27 09:13:40;;;;;;;4.82;2.90;;;11.40;99.90;;;;;;5010425;28;20052;-84
2023/04/27 09:16:09;;;;;;;4.75;3.00;;;11.50;92.50;;;;;;5035785;28;20040;-84
2023/04/27 09:18:40;;;;;;;3.80;2.90;;;11.80;99.90;;;;;;5033598;28;20768;-84
2023/04/27 09:21:06;;;;;;;6.43;3.08;;;12.00;1.00;;;;;;5036476;28;20488;-85
2023/04/27 09:23:43;;;;;;;7.00;3.00;;;11.60;1.00;;;;;;5023599;28;20040;-84
2023/04/27 09:26:09;;;;;;;6.22;3.10;;;11.50;1.00;;;;;;5017966;28;20109;-84
2023/04/27 09:28:38;;;;;;;3.67;3.10;;;11.40;1.00;;;;;;5014706;28;20456;-84
2023/04/27 09:31:04;;;;;;;4.95;3.38;;;11.30;99.90;;;;;;5050204;28;20037;-84
2023/04/27 09:33:32;;;;;;;4.60;3.22;;;11.20;99.90;;;;;;5018495;28;20548;-84
2023/04/27 09:36:00;;;;;;;7.57;3.50;;;11.30;1.00;;;;;;5032261;28;20041;-84
2023/04/27 09:38:26;;;;;;;5.35;3.30;;;11.40;99.90;;;;;;5018755;28;20067;-84
2023/04/27 09:40:53;;;;;;;7.50;3.47;;;11.40;99.90;;;;;;5018286;28;20956;-84
2023/04/27 09:43:20;;;;;;;5.85;3.67;;;11.30;99.90;;;;;;5048436;28;20044;-84
2023/04/27 09:45:47;;;;;;;7.13;3.30;;;11.40;99.90;;;;;;5035129;28;20340;-84
2023/04/27 09:48:13;;;;;;;5.47;3.35;;;11.70;99.90;;;;;;5051529;28;20102;-84
2023/04/27 09:50:45;;;;;;;7.78;3.67;;;12.20;99.90;;;;;;5016129;28;20395;-84
2023/04/27 09:53:29;;;;;;;10.55;3.50;;;12.10;99.90;;;;;;5012780;28;20033;-84
2023/04/27 09:56:15;;;;;;;6.40;3.72;;;12.60;1.00;;;;;;5050615;28;20128;-84
2023/04/27 09:58:59;;;;;;;;;;;12.70;99.90;;;;;;5029547;28;20052;-84
2023/04/27 10:01:33;;;;;;;5.32;3.50;;;12.90;99.90;;;;;;5019312;28;19917;-84
2023/04/27 10:04:11;;;;;;;8.45;3.42;;;13.30;99.90;;;;;;5014350;28;20044;-84
2023/04/27 10:06:37;;;;;;;6.57;3.53;;;13.20;99.90;;;;;;5018800;28;20052;-85
2023/04/27 10:09:05;;;;;;;7.35;3.75;;;13.00;99.90;;;;;;5019082;28;20033;-84
2023/04/27 10:11:43;;;;;;;7.95;3.65;;;13.30;99.90;;;;;;5017804;28;20075;-84
2023/04/27 10:14:16;;;;;;;4.88;3.58;;;13.40;99.90;;;;;;5030358;28;20215;-85
2023/04/27 10:16:49;;;;;;;6.53;3.60;;;13.50;99.90;;;;;;5020785;28;20041;-85
2023/04/27 10:19:15;;;;;;;7.35;3.88;;;13.50;99.90;;;;;;5020974;28;20044;-85
2023/04/27 10:22:14;;;;;;;5.40;3.70;;;13.50;99.90;;;;;;5015560;28;20067;-84
2023/04/27 10:24:48;;;;;;;6.60;3.90;;;13.80;99.90;;;;;;4989347;28;20489;-84
2023/04/27 10:27:21;;;;;;;4.60;3.60;;;13.60;99.90;;;;;;5037225;28;20108;-84
2023/04/27 10:29:48;;;;;;;6.22;3.85;;;14.00;99.90;;;;;;5009426;28;20484;-84
2023/04/27 10:32:25;;;;;;;5.28;3.97;;;14.30;99.90;;;;;;5031691;28;20045;-83
2023/04/27 10:35:04;;;;;;;6.22;3.60;;;13.80;99.90;;;;;;5034405;28;20806;-85
2023/04/27 10:37:40;;;;;;;6.68;4.40;;;14.00;99.90;;;;;;5032148;28;20059;-85
2023/04/27 10:40:09;;;;;;;7.60;4.32;;;13.90;99.90;;;;;;5033207;28;20156;-85
2023/04/27 10:42:35;;;;;;;7.20;4.45;;;13.30;99.90;;;;;;5015137;28;20738;-84
2023/04/27 10:45:01;;;;;;;7.20;4.63;;;12.70;68.00;;;;;;5015104;28;20196;-84
2023/04/27 10:47:41;;;;;;;5.53;4.28;;;12.90;99.90;;;;;;5013375;28;20116;-83
2023/04/27 10:50:17;;;;;;;8.38;4.43;;;12.70;22.00;;;;;;5028412;28;20444;-84
2023/04/27 10:52:45;;;;;;;6.57;4.40;;;12.80;5.90;;;;;;5014183;28;20046;-84
2023/04/27 10:55:21;;;;;;;8.27;4.25;;;12.90;8.00;;;;;;5030121;28;20111;-84
2023/04/27 10:57:54;;;;;;;6.00;4.07;;;12.50;1.00;;;;;;5012293;28;20052;-85
2023/04/27 11:00:33;;;;;;;5.43;4.63;;;12.20;1.00;;;;;;5015708;28;20045;-83
2023/04/27 11:03:17;;;;;;;10.20;4.70;;;12.10;1.00;;;;;;5014853;28;20068;-84
2023/04/27 11:05:44;;;;;;;6.30;4.13;;;12.20;1.00;;;;;;5025194;28;20667;-84
2023/04/27 11:08:13;;;;;;;5.93;4.60;;;12.20;1.00;;;;;;5017045;28;20117;-84
2023/04/27 11:10:41;;;;;;;7.20;4.53;;;12.20;1.00;;;;;;5014916;28;20358;-84
2023/04/27 11:13:09;;;;;;;7.03;4.45;;;12.10;1.00;;;;;;5011592;28;20049;-84
2023/04/27 11:15:42;;;;;;;7.88;4.10;;;12.30;1.00;;;;;;5030050;28;20049;-84
2023/04/27 11:18:07;;;;;;;6.07;4.35;;;12.70;1.00;;;;;;5034708;28;20041;-84
2023/04/27 11:20:33;;;;;;;6.68;4.50;;;12.70;1.00;;;;;;5018210;28;20191;-84
2023/04/27 11:22:58;;;;;;;7.82;4.95;;;12.70;1.00;;;;;;5032536;28;20045;-85
2023/04/27 11:25:28;;;;;;;6.43;4.57;;;12.70;1.00;;;;;;5046023;28;20041;-84
2023/04/27 11:27:53;;;;;;;7.97;4.57;;;13.10;1.00;;;;;;5014750;28;20037;-84
2023/04/27 11:30:20;;;;;;;6.07;4.40;;;12.90;1.00;;;;;;5017181;28;20056;-84
2023/04/27 11:32:47;;;;;;;7.78;4.97;;;13.50;1.00;;;;;;5033977;28;20036;-84
2023/04/27 11:35:13;;;;;;;6.57;4.57;;;14.10;1.00;;;;;;5013896;28;20037;-85
2023/04/27 11:37:38;;;;;;;6.78;4.35;;;14.20;1.00;;;;;;5034025;28;20532;-85
2023/04/27 11:40:05;;;;;;;7.70;4.65;;;13.60;1.00;;;;;;5029904;28;20033;-85
2023/04/27 11:42:34;;;;;;;5.45;4.35;;;14.00;1.00;;;;;;5027582;28;20692;-85
2023/04/27 11:45:04;;;;;;;6.78;4.65;;;13.60;1.00;;;;;;5029621;28;20082;-85
2023/04/27 11:47:32;;;;;;;6.82;4.28;;;14.30;1.00;;;;;;5049826;28;20044;-84
2023/04/27 11:50:00;;;;;;;6.55;4.40;;;14.80;1.00;;;;;;5031066;28;20050;-85
2023/04/27 11:52:30;;;;;;;8.20;4.53;;;14.90;1.00;;;;;;5012022;28;20047;-85
2023/04/27 11:54:57;;;;;;;8.38;5.05;;;14.60;1.00;;;;;;5029519;28;20037;-85
2023/04/27 11:57:30;;;;;;;7.65;4.78;;;13.80;1.00;;;;;;5032116;28;22078;-85
2023/04/27 12:00:01;;;;;;;6.05;4.65;;;13.50;1.00;;;;;;5017593;28;20233;-85
2023/04/27 12:02:30;;;;;;;6.90;4.63;;;13.00;99.90;;;;;;5008543;28;20036;-85
2023/04/27 12:05:03;;;;;;;5.65;4.43;;;13.00;99.90;;;;;;5026173;28;20390;-85
2023/04/27 12:07:28;;;;;;;6.93;4.68;;;13.40;99.90;;;;;;5029339;28;20040;-85
2023/04/27 12:09:55;;;;;;;6.25;4.85;;;13.30;99.90;;;;;;5031978;28;20442;-85
2023/04/27 12:12:21;;;;;;;6.80;5.03;;;13.60;99.90;;;;;;5010760;28;20115;-85
2023/04/27 12:14:50;;;;;;;7.00;5.00;;;12.70;99.90;;;;;;5017799;28;20592;-84
2023/04/27 12:17:17;;;;;;;6.80;4.57;;;12.80;99.90;;;;;;5011584;28;20040;-84
2023/04/27 12:19:43;;;;;;;6.78;4.53;;;12.90;99.90;;;;;;5030817;28;20033;-85
2023/04/27 12:22:09;;;;;;;7.30;4.85;;;12.80;99.90;;;;;;5035140;28;20040;-85
2023/04/27 12:24:35;;;;;;;8.43;5.25;;;12.90;99.90;;;;;;5037827;28;20167;-85
2023/04/27 12:27:02;;;;;;;10.15;5.30;;;12.80;99.90;;;;;;5019245;28;20072;-85
2023/04/27 12:29:28;;;;;;;7.80;4.97;;;12.60;99.90;;;;;;5036273;28;20065;-85
2023/04/27 12:31:54;;;;;;;9.95;5.47;;;12.40;99.90;;;;;;5020160;28;20453;-85
2023/04/27 12:34:20;;;;;;;6.70;5.07;;;11.90;99.90;;;;;;5018481;28;20041;-85
2023/04/27 12:36:46;;;;;;;8.15;5.57;;;12.00;99.90;;;;;;5035201;28;20043;-85
2023/04/27 12:39:17;;;;;;;7.82;5.50;;;12.10;99.90;;;;;;5019020;28;20073;-85
2023/04/27 12:41:49;;;;;;;9.32;5.40;;;12.20;99.90;;;;;;5020114;28;20065;-85
2023/04/27 12:44:16;;;;;;;9.95;5.88;;;12.10;99.90;;;;;;5034567;28;20052;-85
2023/04/27 12:46:43;;;;;;;6.43;5.10;;;12.00;99.90;;;;;;5034790;28;20042;-85
2023/04/27 12:49:10;;;;;;;7.80;4.90;;;12.30;99.90;;;;;;5049728;28;20049;-85
2023/04/27 12:51:39;;;;;;;9.07;5.82;;;12.50;99.90;;;;;;5012961;28;20967;-84
2023/04/27 12:54:06;;;;;;;9.05;5.32;;;12.30;99.90;;;;;;5035681;28;20041;-85